Time;durP1;ratioP1;P1;durP2;ratioP2;P2;SDS_P1;SDS_P2;PMS_P1;PMS_P2;Temp;Humidity;BMP_temperature;BMP_pressure;BME280_temperature;BME280_humidity;BME280_pressure;Samples;Min_cycle;Max_cycle;Signal;HPM_P1;HPM_P2
2023/12/25 00:02:06;;;;;;;1.70;1.10;;;11.00;99.90;;;;;;4994009;28;20613;-71
2023/12/25 00:04:32;;;;;;;1.10;1.00;;;11.00;99.90;;;;;;4996126;28;20831;-71
2023/12/25 00:06:57;;;;;;;1.67;0.90;;;10.90;99.90;;;;;;4992695;28;20442;-72
2023/12/25 00:09:23;;;;;;;1.13;1.03;;;10.90;99.90;;;;;;4997117;28;20601;-71
2023/12/25 00:11:49;;;;;;;1.23;1.00;;;10.90;99.90;;;;;;4993599;28;20198;-72
2023/12/25 00:14:15;;;;;;;1.37;0.87;;;10.90;99.90;;;;;;4994914;28;20191;-72
2023/12/25 00:16:41;;;;;;;2.23;1.00;;;10.90;99.90;;;;;;4995356;28;20191;-71
2023/12/25 00:19:07;;;;;;;1.17;0.80;;;11.00;99.90;;;;;;4994320;28;20191;-71
2023/12/25 00:21:33;;;;;;;2.40;0.80;;;11.00;99.90;;;;;;4995764;28;20459;-72
2023/12/25 00:23:59;;;;;;;2.00;0.87;;;11.00;99.90;;;;;;4993138;28;20489;-72
2023/12/25 00:26:24;;;;;;;0.73;0.70;;;11.00;99.90;;;;;;4995848;28;21012;-72
2023/12/25 00:28:50;;;;;;;1.03;0.93;;;11.00;99.90;;;;;;4992650;28;20220;-72
2023/12/25 00:31:16;;;;;;;1.37;0.87;;;11.00;99.90;;;;;;4993172;28;20203;-71
2023/12/25 00:33:41;;;;;;;2.03;0.80;;;11.00;99.90;;;;;;4994206;28;20215;-72
2023/12/25 00:36:07;;;;;;;1.07;1.00;;;11.00;99.90;;;;;;4994331;28;20194;-71
2023/12/25 00:38:33;;;;;;;2.30;0.90;;;10.90;99.90;;;;;;4996217;28;20187;-71
2023/12/25 00:40:59;;;;;;;1.03;0.80;;;10.90;99.90;;;;;;4992985;28;20225;-72
2023/12/25 00:43:24;;;;;;;2.10;0.93;;;10.90;99.90;;;;;;4996577;28;20241;-71
2023/12/25 00:45:50;;;;;;;1.57;0.80;;;10.90;99.90;;;;;;4993674;28;20184;-71
2023/12/25 00:48:17;;;;;;;1.20;1.00;;;10.90;99.90;;;;;;4994583;28;20222;-72
2023/12/25 00:50:42;;;;;;;0.90;0.90;;;11.00;99.90;;;;;;4995564;28;20220;-72
2023/12/25 00:53:08;;;;;;;1.67;1.20;;;11.00;99.90;;;;;;4994658;28;20492;-71
2023/12/25 00:55:34;;;;;;;2.90;2.70;;;10.90;99.90;;;;;;5085081;27;20192;-73
2023/12/25 00:57:59;;;;;;;2.20;1.40;;;11.00;99.90;;;;;;4985941;28;20329;-73
2023/12/25 01:00:25;;;;;;;1.50;1.40;;;11.00;99.90;;;;;;4988889;28;20566;-73
2023/12/25 01:02:50;;;;;;;1.77;1.40;;;10.90;99.90;;;;;;4988285;28;20183;-73
2023/12/25 01:05:17;;;;;;;2.80;1.70;;;11.00;99.90;;;;;;4988735;28;20494;-73
2023/12/25 01:07:43;;;;;;;3.20;1.60;;;11.00;99.90;;;;;;4984663;28;20188;-72
2023/12/25 01:10:09;;;;;;;1.90;1.80;;;11.00;99.90;;;;;;4989201;28;21015;-72
2023/12/25 01:12:35;;;;;;;1.83;1.47;;;11.00;99.90;;;;;;4984203;28;20494;-73
2023/12/25 01:15:00;;;;;;;2.10;1.10;;;11.00;99.90;;;;;;4984010;28;20494;-73
2023/12/25 01:17:26;;;;;;;1.90;1.60;;;11.00;99.90;;;;;;4988120;28;20183;-73
2023/12/25 01:19:52;;;;;;;2.63;1.70;;;11.00;99.90;;;;;;4988832;28;20247;-73
2023/12/25 01:22:18;;;;;;;2.93;1.83;;;11.00;99.90;;;;;;4995857;28;20788;-73
2023/12/25 01:24:44;;;;;;;4.33;1.87;;;11.00;99.90;;;;;;4994792;28;20195;-73
2023/12/25 01:27:10;;;;;;;2.70;1.73;;;11.00;99.90;;;;;;4994201;28;20501;-73
2023/12/25 01:29:36;;;;;;;2.47;1.87;;;11.00;99.90;;;;;;4993517;28;20227;-73
2023/12/25 01:32:01;;;;;;;2.07;1.63;;;11.00;99.90;;;;;;4988522;28;20718;-73
2023/12/25 01:34:27;;;;;;;2.33;1.80;;;11.10;99.90;;;;;;4991524;28;20275;-73
2023/12/25 01:36:53;;;;;;;1.60;1.40;;;11.00;99.90;;;;;;4994009;28;20592;-72
2023/12/25 01:39:18;;;;;;;3.20;1.90;;;11.00;99.90;;;;;;4994106;28;20782;-73
2023/12/25 01:41:44;;;;;;;1.80;1.70;;;11.00;99.90;;;;;;4995055;28;20266;-73
2023/12/25 01:44:10;;;;;;;1.60;1.50;;;11.00;99.90;;;;;;4994544;28;20640;-73
2023/12/25 01:46:36;;;;;;;2.40;1.90;;;11.00;99.90;;;;;;4995649;28;20188;-73
2023/12/25 01:49:01;;;;;;;2.17;1.60;;;11.00;99.90;;;;;;4993214;28;20239;-73
2023/12/25 01:51:27;;;;;;;2.50;1.63;;;11.00;99.90;;;;;;4996031;28;20190;-73
2023/12/25 01:53:53;;;;;;;2.23;1.33;;;11.00;99.90;;;;;;4994287;28;20209;-73
2023/12/25 01:56:19;;;;;;;2.23;1.50;;;11.00;99.90;;;;;;4993062;28;20194;-73
2023/12/25 01:58:45;;;;;;;2.23;1.60;;;11.00;99.90;;;;;;4995780;28;20435;-73
2023/12/25 02:01:10;;;;;;;3.00;2.07;;;11.00;99.90;;;;;;4994360;28;20172;-72
2023/12/25 02:03:36;;;;;;;1.60;1.50;;;11.00;99.90;;;;;;4995953;28;20190;-72
2023/12/25 02:06:03;;;;;;;4.27;2.03;;;11.00;99.90;;;;;;4993749;28;20249;-72
2023/12/25 02:08:30;;;;;;;1.40;1.30;;;11.00;99.90;;;;;;4994732;28;20207;-73
2023/12/25 02:11:02;;;;;;;1.70;1.40;;;11.10;99.90;;;;;;4996920;28;20433;-73
2023/12/25 02:13:28;;;;;;;1.10;1.00;;;11.00;99.90;;;;;;4996422;28;20424;-73
2023/12/25 02:15:54;;;;;;;1.57;1.30;;;11.10;99.90;;;;;;4993931;28;20933;-72
2023/12/25 02:18:20;;;;;;;1.90;1.20;;;11.00;99.90;;;;;;4992979;28;20187;-73
2023/12/25 02:20:47;;;;;;;1.77;1.00;;;11.00;99.90;;;;;;4995280;28;20426;-73
2023/12/25 02:23:18;;;;;;;1.07;0.97;;;11.00;99.90;;;;;;4976214;28;20439;-73
2023/12/25 02:25:56;;;;;;;1.00;0.90;;;11.00;99.90;;;;;;4995476;28;20924;-72
2023/12/25 02:28:24;;;;;;;1.30;1.10;;;11.00;99.90;;;;;;4994231;28;20430;-73
2023/12/25 02:30:51;;;;;;;1.20;1.00;;;11.00;99.90;;;;;;4993212;28;21071;-73
2023/12/25 02:33:17;;;;;;;1.17;1.07;;;11.00;99.90;;;;;;4994451;28;20427;-73
2023/12/25 02:35:42;;;;;;;2.10;1.17;;;11.00;99.90;;;;;;4994654;28;20433;-73
2023/12/25 02:38:08;;;;;;;1.87;1.10;;;11.00;99.90;;;;;;4994480;28;20431;-73
2023/12/25 02:40:39;;;;;;;1.73;1.50;;;11.00;99.90;;;;;;4996091;28;20705;-72
2023/12/25 02:43:09;;;;;;;1.40;1.00;;;11.00;99.90;;;;;;4993177;28;20771;-71
2023/12/25 02:45:35;;;;;;;2.07;1.27;;;11.10;99.90;;;;;;4985725;28;20521;-73
2023/12/25 02:48:01;;;;;;;1.30;1.20;;;11.10;99.90;;;;;;4993672;28;20427;-73
2023/12/25 02:50:27;;;;;;;2.70;1.13;;;11.10;99.90;;;;;;4996143;28;20556;-73
2023/12/25 02:52:53;;;;;;;1.77;1.03;;;11.10;99.90;;;;;;4994232;28;20488;-73
2023/12/25 02:55:19;;;;;;;2.47;0.93;;;11.10;99.90;;;;;;4994111;28;20183;-73
2023/12/25 02:57:44;;;;;;;1.47;1.30;;;11.10;99.90;;;;;;4962780;28;20834;-73
2023/12/25 03:00:10;;;;;;;1.10;0.90;;;11.10;99.90;;;;;;4986021;28;20227;-73
2023/12/25 03:02:36;;;;;;;1.20;1.10;;;11.10;99.90;;;;;;4992724;28;20684;-73
2023/12/25 03:05:02;;;;;;;1.40;1.27;;;11.10;99.90;;;;;;4993692;28;20427;-72
2023/12/25 03:07:27;;;;;;;1.63;1.00;;;11.10;99.90;;;;;;4992688;28;20674;-72
2023/12/25 03:09:53;;;;;;;1.20;1.10;;;11.10;99.90;;;;;;4991497;28;20215;-72
2023/12/25 03:12:19;;;;;;;1.57;1.00;;;11.10;99.90;;;;;;4994203;28;20449;-72
2023/12/25 03:14:44;;;;;;;1.43;1.30;;;11.10;99.90;;;;;;4996033;28;20187;-72
2023/12/25 03:17:10;;;;;;;1.90;1.33;;;11.10;99.90;;;;;;4987086;28;20191;-72
2023/12/25 03:19:35;;;;;;;1.50;1.03;;;11.10;99.90;;;;;;4992599;28;20183;-72
2023/12/25 03:22:01;;;;;;;2.13;1.20;;;11.10;99.90;;;;;;4993455;28;20199;-72
2023/12/25 03:24:27;;;;;;;1.80;1.30;;;11.10;99.90;;;;;;4996258;28;20993;-72
2023/12/25 03:26:52;;;;;;;1.40;1.30;;;11.10;99.90;;;;;;4993733;28;20180;-72
2023/12/25 03:29:18;;;;;;;2.40;1.27;;;11.10;99.90;;;;;;4994358;28;20316;-72
2023/12/25 03:31:44;;;;;;;1.50;1.40;;;11.10;99.90;;;;;;4995467;28;20207;-73
2023/12/25 03:34:18;;;;;;;3.63;1.37;;;11.10;99.90;;;;;;4994367;28;20187;-72
2023/12/25 03:36:44;;;;;;;1.43;1.23;;;11.10;99.90;;;;;;4996964;28;20192;-72
2023/12/25 03:39:10;;;;;;;2.07;1.27;;;11.10;99.90;;;;;;4994288;28;20431;-72
2023/12/25 03:41:35;;;;;;;1.60;1.50;;;11.10;99.90;;;;;;4995729;28;20832;-72
2023/12/25 03:44:01;;;;;;;1.60;1.30;;;11.10;99.90;;;;;;4992533;28;20230;-72
2023/12/25 03:46:27;;;;;;;2.40;1.53;;;11.10;99.90;;;;;;4996616;28;20219;-72
2023/12/25 03:48:52;;;;;;;2.30;1.10;;;11.20;99.90;;;;;;4994034;28;20212;-72
2023/12/25 03:51:18;;;;;;;2.93;1.60;;;11.10;99.90;;;;;;4993915;28;20663;-72
2023/12/25 03:53:44;;;;;;;1.63;1.30;;;11.20;99.90;;;;;;4987025;28;20245;-73
2023/12/25 03:56:11;;;;;;;1.77;1.20;;;11.20;99.90;;;;;;4993873;28;20191;-73
2023/12/25 03:58:37;;;;;;;1.27;1.17;;;11.20;99.90;;;;;;4996112;28;20191;-73
2023/12/25 04:01:03;;;;;;;1.53;1.20;;;11.20;99.90;;;;;;4994149;28;20431;-73
2023/12/25 04:03:28;;;;;;;1.67;1.20;;;11.10;99.90;;;;;;4996421;28;20188;-73
2023/12/25 04:05:54;;;;;;;1.10;1.00;;;11.10;99.90;;;;;;4992291;28;20257;-73
2023/12/25 04:08:19;;;;;;;1.30;1.00;;;11.10;99.90;;;;;;4986672;28;20190;-73
2023/12/25 04:10:45;;;;;;;2.20;1.37;;;11.10;99.90;;;;;;4993058;28;21010;-73
2023/12/25 04:13:11;;;;;;;1.23;1.13;;;11.10;99.90;;;;;;4993971;28;20240;-73
2023/12/25 04:15:36;;;;;;;1.20;1.10;;;11.20;99.90;;;;;;4995149;28;20222;-73
2023/12/25 04:18:02;;;;;;;1.53;1.17;;;11.10;99.90;;;;;;4993517;28;20906;-73
2023/12/25 04:20:28;;;;;;;1.13;0.93;;;11.20;99.90;;;;;;4996500;28;20188;-73
2023/12/25 04:22:53;;;;;;;1.20;1.10;;;11.20;99.90;;;;;;4994074;28;20196;-72
2023/12/25 04:25:19;;;;;;;1.97;1.20;;;11.20;99.90;;;;;;4993783;28;20487;-72
2023/12/25 04:27:45;;;;;;;1.57;1.10;;;11.20;99.90;;;;;;4997424;28;20184;-72
2023/12/25 04:30:11;;;;;;;1.30;1.20;;;11.20;99.90;;;;;;4993814;28;20222;-72
2023/12/25 04:32:36;;;;;;;1.77;1.37;;;11.20;99.90;;;;;;5011461;28;20212;-73
2023/12/25 04:35:02;;;;;;;1.43;1.33;;;11.20;99.90;;;;;;4992474;28;20427;-72
2023/12/25 04:37:28;;;;;;;1.60;1.50;;;11.20;99.90;;;;;;4997177;28;20286;-72
2023/12/25 04:39:53;;;;;;;1.40;1.13;;;11.20;99.90;;;;;;4995422;28;20203;-71
2023/12/25 04:42:19;;;;;;;1.30;1.13;;;11.20;99.90;;;;;;4988636;28;20280;-72
2023/12/25 04:44:45;;;;;;;1.73;1.10;;;11.20;99.90;;;;;;4991080;28;20191;-72
2023/12/25 04:47:10;;;;;;;1.07;1.00;;;11.20;99.90;;;;;;4989930;28;20188;-72
2023/12/25 04:49:36;;;;;;;0.80;0.80;;;11.20;99.90;;;;;;4991603;28;20304;-72
2023/12/25 04:52:02;;;;;;;1.53;1.13;;;11.20;99.90;;;;;;4990059;28;20196;-72
2023/12/25 04:54:27;;;;;;;2.43;1.50;;;11.20;99.90;;;;;;4991237;28;20200;-72
2023/12/25 04:56:56;;;;;;;1.50;1.40;;;11.20;99.90;;;;;;4991260;28;20529;-72
2023/12/25 04:59:22;;;;;;;1.40;1.30;;;11.20;99.90;;;;;;4990055;28;20716;-72
2023/12/25 05:01:49;;;;;;;1.40;1.30;;;11.20;99.90;;;;;;4991650;28;20439;-72
2023/12/25 05:04:16;;;;;;;1.30;1.20;;;11.20;99.90;;;;;;4991291;28;20578;-71
2023/12/25 05:06:42;;;;;;;1.17;1.07;;;11.20;99.90;;;;;;4989039;28;20480;-72
2023/12/25 05:09:08;;;;;;;2.73;1.23;;;11.20;99.90;;;;;;4990987;28;20562;-72
2023/12/25 05:11:34;;;;;;;1.17;1.00;;;11.20;99.90;;;;;;4992206;28;20446;-72
2023/12/25 05:14:00;;;;;;;1.10;1.00;;;11.20;99.90;;;;;;4991141;28;20430;-73
2023/12/25 05:16:26;;;;;;;1.60;1.07;;;11.20;99.90;;;;;;4991327;28;20502;-72
2023/12/25 05:18:51;;;;;;;1.10;1.00;;;11.30;99.90;;;;;;4991483;28;20430;-72
2023/12/25 05:21:17;;;;;;;1.23;0.90;;;11.30;99.90;;;;;;4990257;28;20192;-72
2023/12/25 05:23:43;;;;;;;1.30;1.10;;;11.20;99.90;;;;;;4987942;28;20685;-72
2023/12/25 05:26:09;;;;;;;1.07;0.90;;;11.20;99.90;;;;;;4987945;28;20188;-73
2023/12/25 05:28:35;;;;;;;6.20;0.83;;;11.20;99.90;;;;;;4989653;28;20211;-73
2023/12/25 05:31:01;;;;;;;3.13;0.87;;;11.30;99.90;;;;;;4990965;28;20445;-73
2023/12/25 05:33:26;;;;;;;1.47;1.00;;;11.30;99.90;;;;;;4991637;28;20487;-72
2023/12/25 05:35:52;;;;;;;1.13;0.93;;;11.30;99.90;;;;;;4990387;28;20438;-72
2023/12/25 05:38:18;;;;;;;2.07;1.03;;;11.30;99.90;;;;;;4989966;28;20195;-72
2023/12/25 05:40:43;;;;;;;1.30;1.20;;;11.20;99.90;;;;;;4990074;28;20194;-72
2023/12/25 05:43:10;;;;;;;1.00;0.83;;;11.30;99.90;;;;;;4988625;28;20188;-72
2023/12/25 05:45:38;;;;;;;0.60;0.60;;;11.30;99.90;;;;;;4992552;28;20195;-72
2023/12/25 05:48:04;;;;;;;0.80;0.70;;;11.30;99.90;;;;;;4990427;28;20430;-72
2023/12/25 05:50:30;;;;;;;1.60;0.70;;;11.20;99.90;;;;;;4989691;28;20485;-72
2023/12/25 05:52:55;;;;;;;0.80;0.70;;;11.20;99.90;;;;;;4990758;28;20422;-72
2023/12/25 05:55:21;;;;;;;0.87;0.70;;;11.20;99.90;;;;;;4990228;28;20711;-73
2023/12/25 05:57:48;;;;;;;0.60;0.60;;;11.20;99.90;;;;;;4989423;28;20191;-72
2023/12/25 06:00:14;;;;;;;1.33;0.70;;;11.20;99.90;;;;;;4988498;28;20526;-72
2023/12/25 06:02:40;;;;;;;0.77;0.60;;;11.20;99.90;;;;;;4992112;28;20890;-72
2023/12/25 06:05:06;;;;;;;0.60;0.60;;;11.20;99.90;;;;;;4990843;28;20754;-73
2023/12/25 06:07:32;;;;;;;0.60;0.57;;;11.20;99.90;;;;;;4990157;28;20191;-72
2023/12/25 06:09:57;;;;;;;0.57;0.50;;;11.20;99.90;;;;;;5007263;28;20603;-72
2023/12/25 06:12:23;;;;;;;0.93;0.60;;;11.20;99.90;;;;;;4991055;28;20187;-72
2023/12/25 06:14:49;;;;;;;0.60;0.50;;;11.20;99.90;;;;;;4991381;28;20187;-72
2023/12/25 06:17:14;;;;;;;0.60;0.60;;;11.20;99.90;;;;;;4989169;28;20803;-72
2023/12/25 06:19:41;;;;;;;1.13;0.63;;;11.20;99.90;;;;;;4992453;28;20203;-74
2023/12/25 06:22:07;;;;;;;0.60;0.60;;;11.20;99.90;;;;;;4990933;28;20611;-74
2023/12/25 06:24:33;;;;;;;0.80;0.60;;;11.20;99.90;;;;;;4974553;28;20434;-74
2023/12/25 06:26:58;;;;;;;0.80;0.70;;;11.20;99.90;;;;;;4991399;28;20188;-74
2023/12/25 06:29:24;;;;;;;1.23;0.97;;;11.20;99.90;;;;;;4991741;28;20207;-73
2023/12/25 06:31:50;;;;;;;1.67;0.90;;;11.20;99.90;;;;;;4991362;28;20736;-73
2023/12/25 06:34:15;;;;;;;1.00;0.80;;;11.20;99.90;;;;;;4990592;28;20286;-74
2023/12/25 06:36:41;;;;;;;1.20;0.73;;;11.20;99.90;;;;;;4990839;28;20184;-74
2023/12/25 06:39:07;;;;;;;0.70;0.70;;;11.20;99.90;;;;;;4990961;28;20233;-74
2023/12/25 06:41:32;;;;;;;0.93;0.63;;;11.10;99.90;;;;;;4993989;28;20677;-73
2023/12/25 06:43:58;;;;;;;0.70;0.70;;;11.20;99.90;;;;;;4990636;28;20208;-74
2023/12/25 06:46:24;;;;;;;1.00;0.90;;;11.20;99.90;;;;;;4991014;28;20194;-73
2023/12/25 06:48:49;;;;;;;1.20;0.80;;;11.20;99.90;;;;;;4991654;28;20660;-72
2023/12/25 06:51:15;;;;;;;0.70;0.70;;;11.20;99.90;;;;;;4990759;28;20638;-73
2023/12/25 06:53:41;;;;;;;0.80;0.73;;;11.10;99.90;;;;;;4992944;28;20196;-73
2023/12/25 06:56:07;;;;;;;0.70;0.70;;;11.10;99.90;;;;;;4990946;28;20190;-73
2023/12/25 06:58:33;;;;;;;0.90;0.90;;;11.10;99.90;;;;;;4992017;28;20199;-73
2023/12/25 07:01:02;;;;;;;0.80;0.63;;;11.20;99.90;;;;;;4991671;28;20488;-73
2023/12/25 07:03:28;;;;;;;1.77;0.70;;;11.10;99.90;;;;;;4991403;28;20276;-74
2023/12/25 07:05:53;;;;;;;1.87;0.83;;;11.20;99.90;;;;;;4990916;28;20458;-73
2023/12/25 07:08:19;;;;;;;1.63;0.70;;;11.20;99.90;;;;;;4990438;28;20198;-72
2023/12/25 07:10:46;;;;;;;3.23;0.90;;;11.20;99.90;;;;;;4989874;28;20215;-72
2023/12/25 07:13:13;;;;;;;0.80;0.80;;;11.10;99.90;;;;;;4991512;28;20275;-72
2023/12/25 07:15:38;;;;;;;4.00;0.93;;;11.20;99.90;;;;;;4992666;28;20980;-72
2023/12/25 07:18:06;;;;;;;1.70;1.60;;;11.20;99.90;;;;;;4991825;28;20554;-73
2023/12/25 07:20:31;;;;;;;0.67;0.60;;;11.20;99.90;;;;;;4993743;28;20661;-73
2023/12/25 07:22:57;;;;;;;1.07;0.90;;;11.20;99.90;;;;;;4993072;28;20422;-73
2023/12/25 07:25:23;;;;;;;3.40;1.00;;;11.20;99.90;;;;;;4993002;28;20175;-72
2023/12/25 07:27:48;;;;;;;1.47;0.87;;;11.20;99.90;;;;;;4992136;28;20195;-72
2023/12/25 07:30:14;;;;;;;0.83;0.60;;;11.20;99.90;;;;;;4991063;28;20825;-72
2023/12/25 07:32:41;;;;;;;5.00;1.80;;;11.20;99.90;;;;;;4994369;28;20569;-72
2023/12/25 07:35:07;;;;;;;5.93;0.90;;;11.20;99.90;;;;;;4991689;28;21239;-73
2023/12/25 07:37:33;;;;;;;0.80;0.70;;;11.20;99.90;;;;;;4993826;28;20543;-72
2023/12/25 07:39:59;;;;;;;1.13;0.77;;;11.20;99.90;;;;;;4992011;28;20435;-72
2023/12/25 07:42:26;;;;;;;0.80;0.73;;;11.20;99.90;;;;;;4986298;28;20441;-72
2023/12/25 07:44:52;;;;;;;1.63;0.80;;;11.20;99.90;;;;;;4985714;28;20192;-72
2023/12/25 07:47:18;;;;;;;0.80;0.70;;;11.20;99.90;;;;;;4987036;28;20460;-72
2023/12/25 07:49:43;;;;;;;1.00;0.90;;;11.20;99.90;;;;;;4985162;28;20306;-73
2023/12/25 07:52:09;;;;;;;0.70;0.70;;;11.20;99.90;;;;;;4985675;28;20238;-72
2023/12/25 07:54:34;;;;;;;0.90;0.60;;;11.20;99.90;;;;;;4985973;28;20190;-72
2023/12/25 07:57:00;;;;;;;1.00;0.80;;;11.20;99.90;;;;;;4987628;28;20758;-72
2023/12/25 07:59:26;;;;;;;3.03;0.90;;;11.20;99.90;;;;;;4993980;28;20191;-72
2023/12/25 08:01:52;;;;;;;1.00;0.80;;;11.20;99.90;;;;;;4991327;28;20194;-72
2023/12/25 08:04:17;;;;;;;0.83;0.80;;;11.20;99.90;;;;;;4989021;28;20221;-72
2023/12/25 08:06:43;;;;;;;0.70;0.70;;;11.20;99.90;;;;;;4988337;28;20435;-72
2023/12/25 08:09:12;;;;;;;0.90;0.80;;;11.20;99.90;;;;;;4989129;28;20823;-72
2023/12/25 08:11:38;;;;;;;0.90;0.80;;;11.20;99.90;;;;;;4983151;28;21011;-72
2023/12/25 08:14:04;;;;;;;0.93;0.73;;;11.20;99.90;;;;;;4985241;28;20423;-72
2023/12/25 08:16:29;;;;;;;0.90;0.63;;;11.20;99.90;;;;;;4989736;28;20437;-72
2023/12/25 08:18:55;;;;;;;0.70;0.70;;;11.30;99.90;;;;;;4988925;28;20183;-72
2023/12/25 08:21:22;;;;;;;1.20;0.70;;;11.20;99.90;;;;;;4989371;28;20187;-72
2023/12/25 08:23:48;;;;;;;1.37;0.80;;;11.30;99.90;;;;;;4990285;28;20192;-73
2023/12/25 08:26:14;;;;;;;1.70;1.23;;;11.30;99.90;;;;;;5088538;27;20487;-72
2023/12/25 08:28:40;;;;;;;1.13;1.00;;;11.30;99.90;;;;;;4988793;28;20557;-72
2023/12/25 08:31:07;;;;;;;0.90;0.70;;;11.30;99.90;;;;;;4987947;28;20207;-72
2023/12/25 08:33:35;;;;;;;2.37;1.10;;;11.30;99.90;;;;;;4989617;28;21210;-72
2023/12/25 08:36:00;;;;;;;0.70;0.70;;;11.30;99.90;;;;;;4991856;28;20427;-72
2023/12/25 08:38:26;;;;;;;0.80;0.77;;;11.30;99.90;;;;;;4981301;28;20434;-72
2023/12/25 08:40:53;;;;;;;2.60;0.77;;;11.30;99.90;;;;;;4995580;28;20188;-72
2023/12/25 08:43:18;;;;;;;2.17;1.00;;;11.30;99.90;;;;;;4994767;28;20217;-72
2023/12/25 08:45:44;;;;;;;2.03;0.90;;;11.30;99.90;;;;;;4996826;28;20517;-72
2023/12/25 08:48:10;;;;;;;0.80;0.80;;;11.30;99.90;;;;;;4994880;28;20196;-72
2023/12/25 08:50:35;;;;;;;1.53;1.00;;;11.30;99.90;;;;;;4997531;28;20226;-73
2023/12/25 08:53:02;;;;;;;1.20;1.10;;;11.30;99.90;;;;;;4995046;28;20202;-72
2023/12/25 08:55:27;;;;;;;0.90;0.80;;;11.30;99.90;;;;;;4998122;28;20198;-73
2023/12/25 08:57:53;;;;;;;0.60;0.50;;;11.30;99.90;;;;;;4995162;28;20787;-73
2023/12/25 09:00:20;;;;;;;0.60;0.50;;;11.30;99.90;;;;;;4994600;28;20245;-73
2023/12/25 09:02:46;;;;;;;0.70;0.60;;;11.20;99.90;;;;;;4997430;28;20195;-72
2023/12/25 09:05:12;;;;;;;0.60;0.40;;;11.20;99.90;;;;;;4992575;28;20564;-71
2023/12/25 09:07:37;;;;;;;0.77;0.70;;;11.20;99.90;;;;;;4996818;28;20790;-72
2023/12/25 09:10:06;;;;;;;0.60;0.43;;;11.20;99.90;;;;;;4994140;28;20208;-72
2023/12/25 09:12:32;;;;;;;0.60;0.47;;;11.20;99.90;;;;;;4994972;28;20179;-72
2023/12/25 09:14:58;;;;;;;0.50;0.40;;;11.10;99.90;;;;;;4993669;28;20491;-73
2023/12/25 09:17:24;;;;;;;0.50;0.30;;;11.10;99.90;;;;;;4992698;28;21074;-73
2023/12/25 09:19:49;;;;;;;0.50;0.33;;;11.10;99.90;;;;;;4993202;28;20269;-72
2023/12/25 09:22:15;;;;;;;0.60;0.50;;;11.10;99.90;;;;;;4992554;28;20341;-73
2023/12/25 09:24:41;;;;;;;0.80;0.60;;;11.00;99.90;;;;;;4995483;28;20264;-73
2023/12/25 09:27:07;;;;;;;0.60;0.50;;;11.00;99.90;;;;;;4992247;28;20201;-73
2023/12/25 09:29:33;;;;;;;0.80;0.60;;;11.00;99.90;;;;;;4996491;28;20479;-72
2023/12/25 09:31:58;;;;;;;1.07;0.60;;;11.00;99.90;;;;;;4992977;28;20191;-73
2023/12/25 09:34:24;;;;;;;0.90;0.63;;;11.00;99.90;;;;;;4994753;28;20286;-73
2023/12/25 09:36:51;;;;;;;0.40;0.30;;;10.90;99.90;;;;;;4993089;28;20319;-72
2023/12/25 09:39:17;;;;;;;0.50;0.30;;;10.90;99.90;;;;;;4992722;28;20296;-72
2023/12/25 09:41:42;;;;;;;0.60;0.50;;;10.90;99.90;;;;;;4995665;28;20431;-72
2023/12/25 09:44:08;;;;;;;0.90;0.50;;;10.80;99.90;;;;;;4986232;28;20179;-73
2023/12/25 09:46:34;;;;;;;1.20;0.57;;;10.90;99.90;;;;;;4992513;28;20437;-71
2023/12/25 09:49:00;;;;;;;1.60;0.80;;;10.80;99.90;;;;;;4992321;28;20195;-73
2023/12/25 09:51:32;;;;;;;1.83;1.23;;;10.80;99.90;;;;;;4995013;28;20185;-73
2023/12/25 09:53:58;;;;;;;1.87;0.90;;;10.80;99.90;;;;;;4993452;28;20274;-72
2023/12/25 09:56:26;;;;;;;1.73;1.13;;;10.80;99.90;;;;;;4993180;28;20923;-72
2023/12/25 09:58:54;;;;;;;1.93;1.60;;;10.80;99.90;;;;;;4993242;28;20451;-73
2023/12/25 10:01:20;;;;;;;2.03;0.90;;;10.80;99.90;;;;;;4991573;28;20951;-73
2023/12/25 10:03:46;;;;;;;2.67;1.50;;;10.80;99.90;;;;;;4987911;28;20458;-74
2023/12/25 10:06:13;;;;;;;2.83;1.70;;;10.80;99.90;;;;;;4987756;28;20492;-73
2023/12/25 10:08:39;;;;;;;1.70;1.13;;;10.80;99.90;;;;;;4987798;28;20446;-73
2023/12/25 10:11:13;;;;;;;3.27;1.27;;;10.80;99.90;;;;;;4992095;28;20960;-73
2023/12/25 10:13:43;;;;;;;1.30;1.10;;;10.80;99.90;;;;;;4995931;28;20449;-73
2023/12/25 10:16:09;;;;;;;1.10;0.90;;;10.80;99.90;;;;;;4991272;28;20865;-73
2023/12/25 10:18:38;;;;;;;1.43;0.80;;;10.70;99.90;;;;;;4994059;28;20431;-73
2023/12/25 10:21:04;;;;;;;1.70;1.07;;;10.70;99.90;;;;;;4992813;28;20276;-74
2023/12/25 10:23:34;;;;;;;1.03;0.80;;;10.70;99.90;;;;;;4991382;28;20804;-73
2023/12/25 10:26:02;;;;;;;1.00;0.70;;;10.70;99.90;;;;;;5002638;28;20792;-73
2023/12/25 10:28:30;;;;;;;1.17;1.00;;;10.70;99.90;;;;;;4992635;28;21011;-74
2023/12/25 10:31:06;;;;;;;1.03;0.80;;;10.70;99.90;;;;;;4986995;28;20900;-72
2023/12/25 10:33:34;;;;;;;0.90;0.70;;;10.70;99.90;;;;;;4994469;28;20441;-72
2023/12/25 10:36:10;;;;;;;1.73;1.03;;;10.70;99.90;;;;;;4994114;28;20862;-72
2023/12/25 10:38:40;;;;;;;1.30;0.90;;;10.70;99.90;;;;;;4991773;28;20533;-72
2023/12/25 10:41:24;;;;;;;0.80;0.80;;;10.70;99.90;;;;;;4988925;28;20427;-72
2023/12/25 10:43:52;;;;;;;1.43;1.20;;;10.70;99.90;;;;;;4992192;28;20426;-73
2023/12/25 10:46:20;;;;;;;1.20;1.10;;;10.70;99.90;;;;;;4992887;28;20503;-73
2023/12/25 10:48:50;;;;;;;1.07;0.93;;;10.70;99.90;;;;;;4996213;28;20774;-73
2023/12/25 10:51:38;;;;;;;1.20;1.00;;;10.70;99.90;;;;;;4994237;28;20423;-73
2023/12/25 10:54:05;;;;;;;1.90;1.20;;;10.80;99.90;;;;;;4987247;28;20661;-72
2023/12/25 10:56:35;;;;;;;2.10;1.37;;;10.70;99.90;;;;;;4993370;28;20427;-73
2023/12/25 10:59:13;;;;;;;2.10;1.20;;;10.70;99.90;;;;;;4993344;28;20480;-73
2023/12/25 11:01:43;;;;;;;1.90;1.23;;;10.70;99.90;;;;;;4997912;28;20509;-73
2023/12/25 11:04:09;;;;;;;0.80;0.80;;;10.70;99.90;;;;;;4993606;28;20859;-73
2023/12/25 11:06:35;;;;;;;0.80;0.77;;;10.70;99.90;;;;;;4996552;28;20435;-73
2023/12/25 11:09:01;;;;;;;1.37;1.27;;;10.70;99.90;;;;;;5005835;28;20206;-72
2023/12/25 11:11:27;;;;;;;1.13;0.90;;;10.70;99.90;;;;;;4996888;28;20916;-73
2023/12/25 11:13:53;;;;;;;1.33;1.10;;;10.70;99.90;;;;;;4993979;28;20431;-73
2023/12/25 11:16:19;;;;;;;1.10;1.00;;;10.70;99.90;;;;;;4994191;28;20529;-73
2023/12/25 11:18:45;;;;;;;1.93;1.30;;;10.70;99.90;;;;;;4996954;28;20432;-72
2023/12/25 11:21:19;;;;;;;1.37;1.27;;;10.70;99.90;;;;;;4987911;28;20434;-73
2023/12/25 11:23:46;;;;;;;1.37;1.27;;;10.70;99.90;;;;;;4984803;28;20191;-73
2023/12/25 11:26:16;;;;;;;3.80;2.33;;;10.70;99.90;;;;;;4984133;28;20443;-73
2023/12/25 11:28:48;;;;;;;3.60;2.53;;;10.70;99.90;;;;;;4985879;28;21201;-73
2023/12/25 11:31:21;;;;;;;4.80;3.23;;;10.70;99.90;;;;;;4990067;28;20527;-73
2023/12/25 11:33:47;;;;;;;7.17;4.63;;;10.70;99.90;;;;;;4986788;28;20450;-73
2023/12/25 11:36:15;;;;;;;4.73;3.80;;;10.70;99.90;;;;;;4985403;28;20782;-73
2023/12/25 11:38:53;;;;;;;4.43;3.90;;;10.80;99.90;;;;;;4986723;28;20498;-73
2023/12/25 11:41:19;;;;;;;3.57;3.10;;;10.70;99.90;;;;;;4990748;28;20449;-73
2023/12/25 11:43:48;;;;;;;3.23;2.60;;;10.70;99.90;;;;;;4995119;28;20423;-73
2023/12/25 11:46:16;;;;;;;3.30;3.00;;;10.80;99.90;;;;;;4987133;28;20176;-72
2023/12/25 11:48:57;;;;;;;5.93;4.60;;;10.80;99.90;;;;;;4989887;28;20435;-73
2023/12/25 11:51:25;;;;;;;3.43;3.13;;;10.80;99.90;;;;;;4990833;28;20443;-73
2023/12/25 11:54:01;;;;;;;3.17;2.87;;;10.80;99.90;;;;;;4988460;28;20933;-73
2023/12/25 11:56:31;;;;;;;3.33;3.03;;;10.80;99.90;;;;;;4992405;28;20426;-74
2023/12/25 11:58:56;;;;;;;3.00;2.70;;;10.80;99.90;;;;;;4996690;28;20428;-73
2023/12/25 12:01:22;;;;;;;4.57;3.20;;;10.80;99.90;;;;;;4997731;28;20462;-73
2023/12/25 12:03:51;;;;;;;3.70;3.40;;;10.80;99.90;;;;;;4990700;28;20530;-73
2023/12/25 12:06:18;;;;;;;3.83;3.43;;;10.80;99.90;;;;;;4985525;28;20536;-73
2023/12/25 12:08:44;;;;;;;3.30;3.00;;;10.90;99.90;;;;;;4985511;28;20446;-73
2023/12/25 12:11:11;;;;;;;3.07;2.87;;;10.90;99.90;;;;;;4986159;28;20561;-73
2023/12/25 12:13:37;;;;;;;3.30;3.00;;;10.90;99.90;;;;;;4986706;28;20450;-73
2023/12/25 12:16:04;;;;;;;3.13;2.87;;;10.90;99.90;;;;;;4985970;28;20441;-73
2023/12/25 12:18:30;;;;;;;9.13;3.30;;;10.90;99.90;;;;;;4987385;28;20551;-73
2023/12/25 12:20:56;;;;;;;3.20;2.50;;;10.90;99.90;;;;;;4985838;28;20434;-73
2023/12/25 12:23:21;;;;;;;2.60;2.40;;;10.90;99.90;;;;;;4986816;28;20194;-73
2023/12/25 12:25:47;;;;;;;2.93;2.60;;;10.90;99.90;;;;;;4990112;28;20431;-74
2023/12/25 12:28:17;;;;;;;3.40;2.80;;;10.80;99.90;;;;;;4985896;28;20549;-73
2023/12/25 12:30:43;;;;;;;3.97;2.80;;;10.90;99.90;;;;;;4985790;28;20501;-73
2023/12/25 12:33:10;;;;;;;3.43;3.13;;;10.90;99.90;;;;;;4986513;28;20649;-73
2023/12/25 12:35:36;;;;;;;3.20;2.43;;;10.90;99.90;;;;;;4983824;28;20438;-73
2023/12/25 12:38:04;;;;;;;2.13;1.87;;;10.90;99.90;;;;;;4985665;28;20446;-73
2023/12/25 12:40:30;;;;;;;2.30;2.10;;;10.90;99.90;;;;;;4987651;28;20673;-73
2023/12/25 12:42:55;;;;;;;2.40;2.10;;;10.90;99.90;;;;;;4987398;28;20427;-72
2023/12/25 12:45:21;;;;;;;2.37;2.13;;;10.90;99.90;;;;;;4986607;28;21030;-73